createdAt,value
2019-01-31T00:02:14.961Z,58.53
2019-01-31T00:05:23.582Z,51.97
2019-01-31T00:08:45.201Z,55.53
2019-01-31T00:11:25.489Z,58.23
2019-01-31T00:14:21.266Z,59.63
2019-01-31T00:17:26.226Z,53.57
2019-01-31T00:20:23.802Z,51.03
2019-01-31T00:23:43.211Z,66.00
2019-01-31T00:27:08.961Z,57.37
2019-01-31T00:30:47.097Z,61.40
2019-01-31T00:34:07.227Z,50.30
2019-01-31T00:37:54.384Z,50.07
2019-01-31T00:41:07.304Z,51.63
2019-01-31T00:44:09.266Z,61.13
2019-01-31T00:47:23.530Z,50.77
2019-01-31T00:50:22.387Z,48.80
2019-01-31T00:53:25.721Z,49.90
2019-01-31T00:56:22.384Z,49.10
2019-01-31T00:59:14.410Z,76.50
2019-01-31T01:02:34.665Z,53.93
2019-01-31T01:05:54.544Z,67.37
2019-01-31T01:08:35.833Z,73.10
2019-01-31T01:12:04.401Z,61.13
2019-01-31T01:15:24.228Z,49.10
2019-01-31T01:18:34.529Z,40.90
2019-01-31T01:21:34.781Z,50.97
2019-01-31T01:24:25.957Z,56.07
2019-01-31T01:27:36.628Z,51.77
2019-01-31T01:30:32.060Z,58.73
2019-01-31T01:33:28.268Z,51.77
2019-01-31T01:36:25.624Z,47.70
2019-01-31T01:39:31.473Z,48.80
2019-01-31T01:42:45.613Z,48.23
2019-01-31T01:46:08.725Z,47.70
2019-01-31T01:49:07.768Z,46.73
2019-01-31T01:52:30.937Z,46.50
2019-01-31T01:55:48.832Z,46.07
2019-01-31T01:58:54.924Z,49.40
2019-01-31T02:02:06.038Z,45.80
2019-01-31T02:05:12.830Z,46.73
2019-01-31T02:08:32.115Z,45.23
2019-01-31T02:11:21.709Z,47.83
2019-01-31T02:14:20.399Z,46.13
2019-01-31T02:17:14.687Z,43.30
2019-01-31T02:20:29.584Z,42.93
2019-01-31T02:23:43.211Z,42.43
2019-01-31T02:27:31.126Z,44.03
2019-01-31T02:30:27.675Z,42.30
2019-01-31T02:33:51.278Z,42.13
2019-01-31T02:36:59.762Z,43.60
2019-01-31T02:40:11.320Z,41.27
2019-01-31T02:43:22.984Z,45.00
2019-01-31T02:46:33.961Z,44.30
2019-01-31T02:49:35.962Z,42.63
2019-01-31T02:53:05.466Z,42.47
2019-01-31T02:56:35.573Z,43.20
2019-01-31T03:00:01.157Z,40.63
2019-01-31T03:03:03.882Z,43.00
2019-01-31T03:06:18.013Z,35.43
2019-01-31T03:09:42.000Z,41.73
2019-01-31T03:12:39.931Z,40.27
2019-01-31T03:16:19.273Z,40.83
2019-01-31T03:19:10.846Z,39.33
2019-01-31T03:22:04.856Z,44.63
2019-01-31T03:25:16.047Z,40.30
2019-01-31T03:28:52.797Z,42.87
2019-01-31T03:32:24.665Z,41.50
2019-01-31T03:35:36.264Z,44.27
2019-01-31T03:38:56.069Z,42.33
2019-01-31T03:42:08.207Z,38.93
2019-01-31T03:45:30.587Z,42.13
2019-01-31T03:48:33.386Z,34.50
2019-01-31T03:51:50.532Z,38.50
2019-01-31T03:54:42.274Z,35.33
2019-01-31T03:57:39.276Z,44.20
2019-01-31T04:00:55.563Z,37.07
2019-01-31T04:03:45.740Z,42.90
2019-01-31T04:06:23.840Z,38.43
2019-01-31T04:08:54.522Z,37.87
2019-01-31T04:11:24.567Z,38.47
2019-01-31T04:13:54.574Z,37.17
2019-01-31T04:16:24.729Z,35.30
2019-01-31T04:18:54.621Z,36.03
2019-01-31T04:21:24.670Z,37.47
2019-01-31T04:23:55.018Z,37.50
2019-01-31T04:26:24.979Z,37.07
2019-01-31T04:28:55.514Z,36.93
2019-01-31T04:31:25.413Z,38.23
2019-01-31T04:33:55.302Z,36.63
2019-01-31T04:36:25.468Z,36.27
2019-01-31T04:38:55.454Z,36.03
2019-01-31T04:41:25.358Z,39.33
2019-01-31T04:43:55.519Z,32.50
2019-01-31T04:46:25.398Z,38.33
2019-01-31T04:48:55.275Z,36.47
2019-01-31T04:51:25.181Z,39.00
2019-01-31T04:53:55.097Z,37.23
2019-01-31T04:56:25.007Z,38.73
2019-01-31T04:58:54.904Z,39.20
2019-01-31T05:01:26.588Z,38.03
2019-01-31T05:03:56.910Z,34.97
2019-01-31T05:06:26.810Z,36.10
2019-01-31T05:08:56.799Z,39.30
2019-01-31T05:11:26.707Z,32.50
2019-01-31T05:13:56.896Z,34.37
2019-01-31T05:16:26.744Z,36.10
2019-01-31T05:18:57.000Z,33.93
2019-01-31T05:21:26.894Z,34.37
2019-01-31T05:23:56.938Z,35.97
2019-01-31T05:26:26.833Z,41.00
2019-01-31T05:28:57.063Z,33.83
2019-01-31T05:31:27.043Z,37.17
2019-01-31T05:33:56.975Z,34.50
2019-01-31T05:36:26.918Z,36.63
2019-01-31T05:38:56.954Z,36.67
2019-01-31T05:41:26.862Z,38.63
2019-01-31T05:43:56.783Z,39.63
2019-01-31T05:46:26.792Z,34.47
2019-01-31T05:48:56.825Z,35.63
2019-01-31T05:51:26.785Z,35.00
2019-01-31T05:53:56.724Z,35.73
2019-01-31T05:56:26.668Z,33.93
2019-01-31T05:58:56.622Z,35.13
2019-01-31T06:01:26.507Z,32.63
2019-01-31T06:03:56.813Z,35.87
2019-01-31T06:06:26.965Z,33.93
2019-01-31T06:08:57.256Z,34.47
2019-01-31T06:11:27.135Z,30.30
2019-01-31T06:13:57.061Z,36.47
2019-01-31T06:16:26.973Z,32.90
2019-01-31T06:18:57.122Z,33.80
2019-01-31T06:21:27.090Z,35.17
2019-01-31T06:23:57.315Z,30.70
2019-01-31T06:26:27.268Z,30.57
2019-01-31T06:28:57.202Z,31.97
2019-01-31T06:31:27.522Z,31.37
2019-01-31T06:33:57.411Z,33.80
2019-01-31T06:36:27.363Z,35.20
2019-01-31T06:38:57.374Z,30.93
2019-01-31T06:41:27.439Z,30.97
2019-01-31T06:43:57.573Z,36.37
2019-01-31T06:46:27.725Z,29.23
2019-01-31T06:48:58.993Z,32.37
2019-01-31T06:51:29.089Z,31.70
2019-01-31T06:53:59.305Z,33.83
2019-01-31T06:56:29.312Z,30.73
2019-01-31T06:58:59.292Z,32.00
2019-01-31T07:01:29.669Z,32.80
2019-01-31T07:03:59.712Z,29.93
2019-01-31T07:06:29.662Z,26.73
2019-01-31T07:08:59.649Z,33.50
2019-01-31T07:11:30.412Z,36.37
2019-01-31T07:14:00.702Z,42.20
2019-01-31T07:16:30.605Z,36.60
2019-01-31T07:19:00.594Z,32.07
2019-01-31T07:21:30.974Z,33.53
2019-01-31T07:24:00.878Z,30.43
2019-01-31T07:26:30.819Z,29.57
2019-01-31T07:29:00.846Z,31.53
2019-01-31T07:31:30.892Z,30.43
2019-01-31T07:34:00.922Z,35.40
2019-01-31T07:36:30.969Z,29.43
2019-01-31T07:39:00.902Z,29.37
2019-01-31T07:41:41.113Z,34.63
2019-01-31T07:44:02.508Z,30.27
2019-01-31T07:46:32.449Z,29.10
2019-01-31T07:49:02.691Z,32.43
2019-01-31T07:51:32.818Z,31.37
2019-01-31T07:54:02.779Z,31.13
2019-01-31T07:56:33.008Z,34.83
2019-01-31T07:59:02.867Z,37.07
2019-01-31T08:01:33.068Z,35.67
2019-01-31T08:04:03.267Z,34.97
2019-01-31T08:06:33.407Z,30.43
2019-01-31T08:09:03.877Z,32.13
2019-01-31T08:11:33.791Z,35.40
2019-01-31T08:14:04.483Z,31.60
2019-01-31T08:16:34.505Z,34.80
2019-01-31T08:19:05.036Z,36.13
2019-01-31T08:21:34.940Z,32.67
2019-01-31T08:24:05.380Z,31.60
2019-01-31T08:26:35.337Z,33.47
2019-01-31T08:29:05.497Z,33.47
2019-01-31T08:31:35.558Z,34.80
2019-01-31T08:34:05.823Z,33.23
2019-01-31T08:36:35.988Z,34.80
2019-01-31T08:39:08.996Z,34.33
2019-01-31T08:41:38.998Z,32.33
2019-01-31T08:44:09.228Z,32.70
2019-01-31T08:46:39.447Z,32.07
2019-01-31T08:49:09.885Z,29.47
2019-01-31T08:51:39.778Z,30.03
2019-01-31T08:54:09.728Z,31.10
2019-01-31T08:56:39.615Z,33.10
2019-01-31T08:59:09.673Z,31.90
2019-01-31T09:01:40.069Z,30.03
2019-01-31T09:04:09.978Z,30.87
2019-01-31T09:06:39.971Z,30.73
2019-01-31T09:09:14.027Z,32.90
2019-01-31T09:11:44.501Z,27.60
2019-01-31T09:14:14.405Z,30.40
2019-01-31T09:16:44.394Z,32.93
2019-01-31T09:19:14.360Z,32.30
2019-01-31T09:22:01.260Z,29.70
2019-01-31T09:25:15.572Z,30.73
2019-01-31T09:28:22.133Z,30.10
2019-01-31T09:31:44.939Z,31.13
2019-01-31T09:34:53.029Z,30.40
2019-01-31T09:38:17.876Z,31.47
2019-01-31T09:41:41.750Z,33.03
2019-01-31T09:44:51.948Z,27.67
2019-01-31T09:48:15.606Z,32.13
2019-01-31T09:51:48.839Z,32.10
2019-01-31T09:54:48.669Z,28.20
2019-01-31T09:58:28.087Z,27.97
2019-01-31T10:01:59.562Z,26.07
2019-01-31T10:05:12.218Z,27.60
2019-01-31T10:08:13.007Z,24.77
2019-01-31T10:11:21.772Z,25.43
2019-01-31T10:14:47.993Z,25.33
2019-01-31T10:18:11.598Z,24.57
2019-01-31T10:21:48.512Z,25.27
2019-01-31T10:25:19.171Z,23.50
2019-01-31T10:28:49.660Z,24.63
2019-01-31T10:32:12.862Z,23.00
2019-01-31T10:35:05.481Z,20.90
2019-01-31T10:38:00.525Z,22.30
2019-01-31T10:41:20.514Z,20.67
2019-01-31T10:45:02.356Z,22.77
2019-01-31T10:48:00.822Z,21.43
2019-01-31T10:51:27.791Z,22.40
2019-01-31T10:54:49.227Z,20.63
2019-01-31T10:57:41.801Z,21.03
2019-01-31T11:00:52.487Z,19.87
2019-01-31T11:03:51.893Z,21.40
2019-01-31T11:07:16.421Z,20.20
2019-01-31T11:10:37.264Z,18.60
2019-01-31T11:13:59.433Z,22.80
2019-01-31T11:16:56.398Z,21.90
2019-01-31T11:20:09.903Z,21.07
2019-01-31T11:23:14.777Z,22.50
2019-01-31T11:26:41.586Z,18.17
2019-01-31T11:29:55.350Z,19.53
2019-01-31T11:33:36.584Z,21.10
2019-01-31T11:36:50.931Z,22.30
2019-01-31T11:40:27.287Z,22.43
2019-01-31T11:44:12.797Z,22.03
2019-01-31T11:47:20.291Z,18.07
2019-01-31T11:50:39.784Z,23.13
2019-01-31T11:53:41.711Z,20.43
2019-01-31T11:56:51.094Z,22.10
2019-01-31T11:59:20.992Z,26.00
2019-01-31T12:01:50.954Z,17.50
2019-01-31T12:04:21.368Z,18.07
2019-01-31T12:06:51.776Z,16.50
2019-01-31T12:09:22.824Z,17.83
2019-01-31T12:11:53.199Z,20.73
2019-01-31T12:14:23.385Z,17.23
2019-01-31T12:16:53.417Z,17.47
2019-01-31T12:19:23.622Z,23.97
2019-01-31T12:21:54.198Z,18.97
2019-01-31T12:24:24.167Z,14.30
2019-01-31T12:26:54.705Z,14.70
2019-01-31T12:29:24.871Z,13.30
2019-01-31T12:31:55.087Z,15.17
2019-01-31T12:34:25.375Z,12.80
2019-01-31T12:36:55.644Z,13.67
2019-01-31T12:39:25.679Z,14.13
2019-01-31T12:41:56.093Z,15.77
2019-01-31T12:44:26.413Z,13.70
2019-01-31T12:46:56.323Z,14.30
2019-01-31T12:49:26.358Z,10.83
2019-01-31T12:51:56.775Z,10.90
2019-01-31T12:54:27.070Z,9.90
2019-01-31T12:56:57.419Z,8.50
2019-01-31T12:59:27.466Z,8.43
2019-01-31T13:01:57.406Z,8.50
2019-01-31T13:04:27.520Z,11.10
2019-01-31T13:06:57.578Z,10.77
2019-01-31T13:09:28.399Z,9.57
2019-01-31T13:11:58.606Z,9.20
2019-01-31T13:14:28.728Z,8.97
2019-01-31T13:16:58.739Z,8.40
2019-01-31T13:19:28.699Z,12.83
2019-01-31T13:21:59.245Z,11.37
2019-01-31T13:24:29.205Z,12.37
2019-01-31T13:26:59.457Z,14.13
2019-01-31T13:29:29.319Z,14.80
2019-01-31T13:31:59.427Z,13.63
2019-01-31T13:34:29.501Z,16.10
2019-01-31T13:36:59.572Z,14.30
2019-01-31T13:39:29.564Z,15.93
2019-01-31T13:41:59.532Z,14.67
2019-01-31T13:44:33.122Z,15.50
2019-01-31T13:47:03.606Z,15.30
2019-01-31T13:49:33.670Z,13.97
2019-01-31T13:52:03.665Z,17.13
2019-01-31T13:54:33.732Z,18.43
2019-01-31T13:57:11.008Z,14.80
2019-01-31T13:59:50.776Z,14.90
2019-01-31T14:02:25.856Z,15.57
2019-01-31T14:04:56.815Z,14.83
2019-01-31T14:07:27.639Z,15.17
2019-01-31T14:10:04.910Z,15.57
2019-01-31T14:12:32.361Z,15.63
2019-01-31T14:15:02.563Z,16.93
2019-01-31T14:17:32.472Z,18.10
2019-01-31T14:20:02.628Z,17.33
2019-01-31T14:22:42.809Z,15.50
2019-01-31T14:25:05.929Z,14.40
2019-01-31T14:27:36.045Z,10.53
2019-01-31T14:30:14.507Z,13.07
2019-01-31T14:32:45.114Z,13.27
2019-01-31T14:35:15.280Z,12.37
2019-01-31T14:37:45.967Z,12.97
2019-01-31T14:40:17.475Z,18.47
2019-01-31T14:42:47.473Z,12.27
2019-01-31T14:45:17.630Z,13.40
2019-01-31T14:47:47.528Z,14.27
2019-01-31T14:50:25.285Z,14.67
2019-01-31T14:52:57.010Z,16.37
2019-01-31T14:55:27.351Z,14.03
2019-01-31T14:57:58.011Z,19.07
2019-01-31T15:00:30.527Z,14.13
2019-01-31T15:03:02.326Z,16.33
2019-01-31T15:05:33.197Z,14.67
2019-01-31T15:08:03.753Z,17.30
2019-01-31T15:10:34.479Z,15.73
2019-01-31T15:13:05.983Z,15.03
2019-01-31T15:15:35.997Z,16.47
2019-01-31T15:18:09.558Z,19.27
2019-01-31T15:20:44.374Z,16.47
2019-01-31T15:23:17.527Z,18.57
2019-01-31T15:25:47.576Z,18.87
2019-01-31T15:28:18.015Z,20.10
2019-01-31T15:30:48.011Z,19.77
2019-01-31T15:33:18.509Z,16.60
2019-01-31T15:35:49.285Z,20.70
2019-01-31T15:38:20.012Z,18.70
2019-01-31T15:40:50.562Z,15.87
2019-01-31T15:43:21.231Z,16.30
2019-01-31T15:45:51.695Z,22.30
2019-01-31T15:48:23.781Z,18.73
2019-01-31T15:50:54.700Z,16.90
2019-01-31T15:53:25.123Z,16.90
2019-01-31T15:55:56.490Z,18.80
2019-01-31T15:58:26.498Z,17.57
2019-01-31T16:00:58.596Z,15.53
2019-01-31T16:03:29.029Z,17.60
2019-01-31T16:05:59.091Z,17.83
2019-01-31T16:08:29.588Z,16.67
2019-01-31T16:10:59.658Z,14.33
2019-01-31T16:13:29.642Z,16.73
2019-01-31T16:16:00.698Z,20.03
2019-01-31T16:18:30.742Z,16.43
2019-01-31T16:21:01.532Z,18.00
2019-01-31T16:23:32.415Z,15.20
2019-01-31T16:26:02.375Z,15.90
2019-01-31T16:28:33.760Z,17.50
2019-01-31T16:31:04.187Z,18.73
2019-01-31T16:33:34.186Z,20.37
2019-01-31T16:36:04.707Z,17.73
2019-01-31T16:38:34.669Z,21.53
2019-01-31T16:41:05.114Z,22.07
2019-01-31T16:43:35.617Z,20.10
2019-01-31T16:46:06.088Z,22.77
2019-01-31T16:48:35.995Z,21.93
2019-01-31T16:51:06.099Z,20.57
2019-01-31T16:53:35.981Z,26.70
2019-01-31T16:56:06.055Z,21.70
2019-01-31T16:58:36.139Z,20.60
2019-01-31T17:01:07.116Z,24.97
2019-01-31T17:03:37.234Z,20.83
2019-01-31T17:06:07.273Z,22.20
2019-01-31T17:08:38.494Z,24.67
2019-01-31T17:11:08.438Z,22.07
2019-01-31T17:13:38.636Z,26.37
2019-01-31T17:16:09.694Z,29.13
2019-01-31T17:18:39.739Z,28.43
2019-01-31T17:21:10.293Z,25.37
2019-01-31T17:23:40.282Z,29.73
2019-01-31T17:26:10.493Z,28.87
2019-01-31T17:28:40.644Z,29.33
2019-01-31T17:31:11.375Z,29.50
2019-01-31T17:33:42.173Z,32.43
2019-01-31T17:36:12.569Z,29.27
2019-01-31T17:38:42.727Z,32.17
2019-01-31T17:41:12.944Z,29.67
2019-01-31T17:43:43.184Z,34.73
2019-01-31T17:46:13.587Z,32.67
2019-01-31T17:48:43.526Z,33.77
2019-01-31T17:51:15.236Z,32.93
2019-01-31T17:53:46.105Z,35.67
2019-01-31T17:56:16.081Z,32.40
2019-01-31T17:58:46.873Z,30.20
2019-01-31T18:01:17.012Z,31.47
2019-01-31T18:03:47.060Z,34.57
2019-01-31T18:06:18.841Z,32.03
2019-01-31T18:08:49.909Z,35.83
2019-01-31T18:11:20.049Z,38.17
2019-01-31T18:13:52.662Z,33.20
2019-01-31T18:16:22.971Z,37.93
2019-01-31T18:18:53.083Z,37.80
2019-01-31T18:21:23.026Z,37.83
2019-01-31T18:23:53.252Z,37.73
2019-01-31T18:26:23.603Z,37.83
2019-01-31T18:28:53.503Z,42.33
2019-01-31T18:31:23.519Z,41.70
2019-01-31T18:33:53.431Z,38.97
2019-01-31T18:36:24.994Z,43.60
2019-01-31T18:38:57.609Z,36.80
2019-01-31T18:41:29.421Z,35.50
2019-01-31T18:43:59.366Z,39.97
2019-01-31T18:46:29.319Z,36.53
2019-01-31T18:48:59.303Z,39.93
2019-01-31T18:51:30.163Z,41.73
2019-01-31T18:54:01.410Z,40.80
2019-01-31T18:56:31.741Z,45.67
2019-01-31T18:59:02.385Z,45.67
2019-01-31T19:01:32.571Z,45.30
2019-01-31T19:04:02.887Z,44.00
2019-01-31T19:06:33.965Z,42.00
2019-01-31T19:09:05.247Z,41.30
2019-01-31T19:11:35.293Z,46.03
2019-01-31T19:14:05.946Z,42.27
2019-01-31T19:16:35.841Z,43.87
2019-01-31T19:19:06.195Z,49.43
2019-01-31T19:21:36.163Z,44.93
2019-01-31T19:24:06.608Z,47.00
2019-01-31T19:26:36.534Z,45.97
2019-01-31T19:29:07.440Z,46.00
2019-01-31T19:31:40.208Z,46.80
2019-01-31T19:34:09.411Z,45.93
2019-01-31T19:36:39.372Z,47.03
2019-01-31T19:39:15.769Z,44.77
2019-01-31T19:41:45.800Z,40.63
2019-01-31T19:44:15.708Z,90.37
2019-01-31T19:46:45.641Z,42.10
2019-01-31T19:49:15.751Z,42.70
2019-01-31T19:51:46.135Z,44.60
2019-01-31T19:54:18.545Z,44.13
2019-01-31T19:56:48.796Z,42.13
2019-01-31T19:59:18.811Z,43.30
2019-01-31T20:01:50.767Z,45.67
2019-01-31T20:04:20.552Z,42.43
2019-01-31T20:06:50.768Z,41.33
2019-01-31T20:09:24.691Z,45.93
2019-01-31T20:11:54.675Z,42.07
2019-01-31T20:14:25.113Z,45.50
2019-01-31T20:16:55.073Z,47.37
2019-01-31T20:19:25.276Z,46.63
2019-01-31T20:21:55.186Z,44.93
2019-01-31T20:24:25.668Z,46.50
2019-01-31T20:26:55.897Z,45.67
2019-01-31T20:29:26.069Z,48.13
2019-01-31T20:31:56.402Z,48.07
2019-01-31T20:34:26.454Z,50.30
2019-01-31T20:36:56.558Z,55.70
2019-01-31T20:39:26.807Z,43.57
2019-01-31T20:41:56.939Z,47.77
2019-01-31T20:44:26.976Z,51.23
2019-01-31T20:46:56.967Z,49.13
2019-01-31T20:49:26.955Z,52.13
2019-01-31T20:51:56.948Z,47.90
2019-01-31T20:54:26.845Z,50.07
2019-01-31T20:56:56.898Z,55.83
2019-01-31T20:59:27.007Z,53.40
2019-01-31T21:01:56.883Z,52.20
2019-01-31T21:04:26.919Z,53.07
2019-01-31T21:06:57.001Z,51.20
2019-01-31T21:09:28.685Z,60.70
2019-01-31T21:11:58.949Z,51.50
2019-01-31T21:14:29.288Z,54.30
2019-01-31T21:16:59.444Z,54.83
2019-01-31T21:19:30.764Z,55.00
2019-01-31T21:22:00.784Z,58.97
2019-01-31T21:24:30.734Z,55.30
2019-01-31T21:27:00.831Z,56.13
2019-01-31T21:29:30.782Z,60.03
2019-01-31T21:32:00.892Z,57.57
2019-01-31T21:34:30.893Z,58.37
2019-01-31T21:37:00.861Z,66.87
2019-01-31T21:39:30.783Z,60.87
2019-01-31T21:42:00.684Z,60.33
2019-01-31T21:44:30.776Z,58.27
2019-01-31T21:47:03.339Z,63.33
2019-01-31T21:49:32.569Z,64.53
2019-01-31T21:52:02.493Z,63.40
2019-01-31T21:54:32.412Z,63.67
2019-01-31T21:57:02.556Z,67.33
2019-01-31T21:59:32.641Z,75.77
2019-01-31T22:02:02.727Z,66.67
2019-01-31T22:04:32.642Z,72.17
2019-01-31T22:07:02.943Z,59.73
2019-01-31T22:09:32.847Z,65.03
2019-01-31T22:12:02.850Z,63.23
2019-01-31T22:14:32.729Z,66.57
2019-01-31T22:17:13.924Z,69.70
2019-01-31T22:19:34.392Z,68.30
2019-01-31T22:22:04.693Z,73.50
2019-01-31T22:24:34.585Z,73.17
2019-01-31T22:27:04.588Z,72.47
2019-01-31T22:29:34.764Z,67.17
2019-01-31T22:32:04.758Z,71.07
2019-01-31T22:34:35.010Z,69.10
2019-01-31T22:37:05.436Z,75.10
2019-01-31T22:39:35.631Z,73.87
2019-01-31T22:42:05.707Z,76.03
2019-01-31T22:44:35.586Z,67.73
2019-01-31T22:47:05.740Z,65.90
2019-01-31T22:49:35.772Z,66.47
2019-01-31T22:52:05.968Z,74.07
2019-01-31T22:54:35.932Z,70.47
2019-01-31T22:57:05.978Z,68.53
2019-01-31T22:59:35.858Z,80.23
2019-01-31T23:02:14.155Z,74.20
2019-01-31T23:04:44.367Z,68.83
2019-01-31T23:07:14.320Z,66.83
2019-01-31T23:09:44.193Z,71.03
2019-01-31T23:12:14.084Z,75.67
2019-01-31T23:14:45.184Z,71.57
2019-01-31T23:17:15.183Z,66.90
2019-01-31T23:19:45.204Z,73.30
2019-01-31T23:22:15.434Z,73.57
2019-01-31T23:24:45.469Z,71.93
2019-01-31T23:27:19.764Z,65.73
2019-01-31T23:29:49.703Z,82.87
2019-01-31T23:32:19.830Z,81.23
2019-01-31T23:34:49.987Z,66.23
2019-01-31T23:37:19.897Z,72.80
2019-01-31T23:39:49.846Z,69.83
2019-01-31T23:42:19.885Z,72.30
2019-01-31T23:44:49.771Z,83.83
2019-01-31T23:47:19.754Z,69.57
2019-01-31T23:49:49.661Z,72.00
2019-01-31T23:52:19.945Z,77.27
2019-01-31T23:54:49.841Z,80.27
2019-01-31T23:57:19.757Z,78.70
2019-01-31T23:59:49.684Z,67.70
